sensor_id;sensor_type;location;lat;lon;timestamp;temperature;humidity
64143;DHT22;50437;51.970;5.904;2022-07-05T00:00:23;16.50;63.30
64143;DHT22;50437;51.970;5.904;2022-07-05T00:02:49;16.50;63.60
64143;DHT22;50437;51.970;5.904;2022-07-05T00:05:15;16.60;63.40
64143;DHT22;50437;51.970;5.904;2022-07-05T00:07:41;16.50;63.90
64143;DHT22;50437;51.970;5.904;2022-07-05T00:10:07;16.50;64.10
64143;DHT22;50437;51.970;5.904;2022-07-05T00:12:33;16.40;64.60
64143;DHT22;50437;51.970;5.904;2022-07-05T00:14:59;16.40;64.40
64143;DHT22;50437;51.970;5.904;2022-07-05T00:17:26;16.40;64.70
64143;DHT22;50437;51.970;5.904;2022-07-05T00:19:52;16.40;65.70
64143;DHT22;50437;51.970;5.904;2022-07-05T00:22:18;16.30;65.70
64143;DHT22;50437;51.970;5.904;2022-07-05T00:24:44;16.30;65.70
64143;DHT22;50437;51.970;5.904;2022-07-05T00:27:10;16.30;66.00
64143;DHT22;50437;51.970;5.904;2022-07-05T00:29:35;16.30;66.30
64143;DHT22;50437;51.970;5.904;2022-07-05T00:32:01;16.20;66.10
64143;DHT22;50437;51.970;5.904;2022-07-05T00:34:27;16.20;66.50
64143;DHT22;50437;51.970;5.904;2022-07-05T00:36:53;16.10;67.30
64143;DHT22;50437;51.970;5.904;2022-07-05T00:39:19;16.10;67.50
64143;DHT22;50437;51.970;5.904;2022-07-05T00:41:45;16.10;67.80
64143;DHT22;50437;51.970;5.904;2022-07-05T00:44:11;16.00;67.80
64143;DHT22;50437;51.970;5.904;2022-07-05T00:46:41;16.00;68.30
64143;DHT22;50437;51.970;5.904;2022-07-05T00:49:07;16.00;69.10
64143;DHT22;50437;51.970;5.904;2022-07-05T00:51:35;16.00;68.90
64143;DHT22;50437;51.970;5.904;2022-07-05T00:54:01;15.90;69.30
64143;DHT22;50437;51.970;5.904;2022-07-05T00:56:27;16.00;69.60
64143;DHT22;50437;51.970;5.904;2022-07-05T00:58:53;15.90;70.60
64143;DHT22;50437;51.970;5.904;2022-07-05T01:01:19;15.80;70.70
64143;DHT22;50437;51.970;5.904;2022-07-05T01:03:45;15.80;70.40
64143;DHT22;50437;51.970;5.904;2022-07-05T01:06:12;15.80;70.50
64143;DHT22;50437;51.970;5.904;2022-07-05T01:08:39;15.80;70.90
64143;DHT22;50437;51.970;5.904;2022-07-05T01:11:05;15.70;71.20
64143;DHT22;50437;51.970;5.904;2022-07-05T01:13:32;15.70;71.60
64143;DHT22;50437;51.970;5.904;2022-07-05T01:15:58;15.60;72.20
64143;DHT22;50437;51.970;5.904;2022-07-05T01:18:24;15.60;72.80
64143;DHT22;50437;51.970;5.904;2022-07-05T01:20:50;15.50;73.30
64143;DHT22;50437;51.970;5.904;2022-07-05T01:23:17;15.50;73.60
64143;DHT22;50437;51.970;5.904;2022-07-05T01:25:43;15.50;73.70
64143;DHT22;50437;51.970;5.904;2022-07-05T01:28:10;15.50;74.10
64143;DHT22;50437;51.970;5.904;2022-07-05T01:30:36;15.50;74.00
64143;DHT22;50437;51.970;5.904;2022-07-05T01:33:04;15.40;74.30
64143;DHT22;50437;51.970;5.904;2022-07-05T01:35:30;15.40;75.00
64143;DHT22;50437;51.970;5.904;2022-07-05T01:37:56;15.40;75.10
64143;DHT22;50437;51.970;5.904;2022-07-05T01:40:22;15.40;75.80
64143;DHT22;50437;51.970;5.904;2022-07-05T01:42:49;15.40;76.30
64143;DHT22;50437;51.970;5.904;2022-07-05T01:45:16;15.40;76.20
64143;DHT22;50437;51.970;5.904;2022-07-05T01:48:01;15.30;76.20
64143;DHT22;50437;51.970;5.904;2022-07-05T01:50:28;15.30;76.80
64143;DHT22;50437;51.970;5.904;2022-07-05T01:52:54;15.30;76.20
64143;DHT22;50437;51.970;5.904;2022-07-05T01:55:22;15.30;76.30
64143;DHT22;50437;51.970;5.904;2022-07-05T01:57:48;15.30;76.70
64143;DHT22;50437;51.970;5.904;2022-07-05T02:00:14;15.20;76.90
64143;DHT22;50437;51.970;5.904;2022-07-05T02:02:43;15.10;76.50
64143;DHT22;50437;51.970;5.904;2022-07-05T02:05:09;15.10;76.70
64143;DHT22;50437;51.970;5.904;2022-07-05T02:07:36;15.10;76.80
64143;DHT22;50437;51.970;5.904;2022-07-05T02:10:02;15.10;76.60
64143;DHT22;50437;51.970;5.904;2022-07-05T02:12:29;15.10;77.00
64143;DHT22;50437;51.970;5.904;2022-07-05T02:14:55;15.00;77.00
64143;DHT22;50437;51.970;5.904;2022-07-05T02:17:21;15.00;76.90
64143;DHT22;50437;51.970;5.904;2022-07-05T02:19:51;15.00;77.00
64143;DHT22;50437;51.970;5.904;2022-07-05T02:22:19;15.00;77.10
64143;DHT22;50437;51.970;5.904;2022-07-05T02:24:45;15.00;77.30
64143;DHT22;50437;51.970;5.904;2022-07-05T02:27:17;15.00;77.50
64143;DHT22;50437;51.970;5.904;2022-07-05T02:29:44;15.00;77.90
64143;DHT22;50437;51.970;5.904;2022-07-05T02:32:11;15.00;77.50
64143;DHT22;50437;51.970;5.904;2022-07-05T02:34:37;15.00;77.40
64143;DHT22;50437;51.970;5.904;2022-07-05T02:37:03;14.90;77.40
64143;DHT22;50437;51.970;5.904;2022-07-05T02:39:29;14.90;78.40
64143;DHT22;50437;51.970;5.904;2022-07-05T02:41:57;14.90;78.60
64143;DHT22;50437;51.970;5.904;2022-07-05T02:44:23;14.90;78.50
64143;DHT22;50437;51.970;5.904;2022-07-05T02:46:51;14.90;78.60
64143;DHT22;50437;51.970;5.904;2022-07-05T02:49:17;14.90;79.10
64143;DHT22;50437;51.970;5.904;2022-07-05T02:51:43;15.00;78.90
64143;DHT22;50437;51.970;5.904;2022-07-05T02:54:12;15.00;79.00
64143;DHT22;50437;51.970;5.904;2022-07-05T02:56:39;15.00;78.30
64143;DHT22;50437;51.970;5.904;2022-07-05T02:59:07;15.20;78.00
64143;DHT22;50437;51.970;5.904;2022-07-05T03:01:36;15.20;77.80
64143;DHT22;50437;51.970;5.904;2022-07-05T03:04:06;15.20;77.60
64143;DHT22;50437;51.970;5.904;2022-07-05T03:06:32;15.20;77.50
64143;DHT22;50437;51.970;5.904;2022-07-05T03:08:59;15.20;77.50
64143;DHT22;50437;51.970;5.904;2022-07-05T03:11:44;15.30;77.60
64143;DHT22;50437;51.970;5.904;2022-07-05T03:14:10;15.40;77.50
64143;DHT22;50437;51.970;5.904;2022-07-05T03:16:35;15.40;77.30
64143;DHT22;50437;51.970;5.904;2022-07-05T03:19:02;15.40;77.50
64143;DHT22;50437;51.970;5.904;2022-07-05T03:21:28;15.50;77.20
64143;DHT22;50437;51.970;5.904;2022-07-05T03:23:54;15.50;77.40
64143;DHT22;50437;51.970;5.904;2022-07-05T03:26:20;15.60;77.30
64143;DHT22;50437;51.970;5.904;2022-07-05T03:28:47;15.60;77.20
64143;DHT22;50437;51.970;5.904;2022-07-05T03:31:13;15.60;77.40
64143;DHT22;50437;51.970;5.904;2022-07-05T03:33:42;15.60;77.40
64143;DHT22;50437;51.970;5.904;2022-07-05T03:36:10;15.70;77.00
64143;DHT22;50437;51.970;5.904;2022-07-05T03:38:39;15.70;76.30
64143;DHT22;50437;51.970;5.904;2022-07-05T03:41:05;15.80;75.90
64143;DHT22;50437;51.970;5.904;2022-07-05T03:43:31;15.80;75.60
64143;DHT22;50437;51.970;5.904;2022-07-05T03:45:57;15.90;74.90
64143;DHT22;50437;51.970;5.904;2022-07-05T03:48:26;15.90;74.60
64143;DHT22;50437;51.970;5.904;2022-07-05T03:50:53;15.90;74.10
64143;DHT22;50437;51.970;5.904;2022-07-05T03:53:19;15.80;74.50
64143;DHT22;50437;51.970;5.904;2022-07-05T03:55:45;15.80;74.80
64143;DHT22;50437;51.970;5.904;2022-07-05T03:58:12;15.90;74.90
64143;DHT22;50437;51.970;5.904;2022-07-05T04:00:38;15.90;73.80
64143;DHT22;50437;51.970;5.904;2022-07-05T04:03:07;16.00;73.60
64143;DHT22;50437;51.970;5.904;2022-07-05T04:05:33;16.00;72.90
64143;DHT22;50437;51.970;5.904;2022-07-05T04:07:59;16.10;72.50
64143;DHT22;50437;51.970;5.904;2022-07-05T04:10:30;16.20;72.70
64143;DHT22;50437;51.970;5.904;2022-07-05T04:12:57;16.10;73.40
64143;DHT22;50437;51.970;5.904;2022-07-05T04:15:25;16.10;73.80
64143;DHT22;50437;51.970;5.904;2022-07-05T04:17:55;16.20;73.80
64143;DHT22;50437;51.970;5.904;2022-07-05T04:20:23;16.20;73.60
64143;DHT22;50437;51.970;5.904;2022-07-05T04:22:51;16.30;72.90
64143;DHT22;50437;51.970;5.904;2022-07-05T04:25:19;16.30;72.10
64143;DHT22;50437;51.970;5.904;2022-07-05T04:27:54;16.40;71.70
64143;DHT22;50437;51.970;5.904;2022-07-05T04:30:22;16.30;72.20
64143;DHT22;50437;51.970;5.904;2022-07-05T04:32:48;16.30;72.70
64143;DHT22;50437;51.970;5.904;2022-07-05T04:35:14;16.30;72.00
64143;DHT22;50437;51.970;5.904;2022-07-05T04:37:41;16.40;72.10
64143;DHT22;50437;51.970;5.904;2022-07-05T04:40:08;16.50;70.80
64143;DHT22;50437;51.970;5.904;2022-07-05T04:42:35;16.60;70.60
64143;DHT22;50437;51.970;5.904;2022-07-05T04:45:02;16.70;71.00
64143;DHT22;50437;51.970;5.904;2022-07-05T04:47:29;16.70;70.10
64143;DHT22;50437;51.970;5.904;2022-07-05T04:49:56;16.80;70.70
64143;DHT22;50437;51.970;5.904;2022-07-05T04:52:23;16.80;71.20
64143;DHT22;50437;51.970;5.904;2022-07-05T04:54:49;16.80;70.90
64143;DHT22;50437;51.970;5.904;2022-07-05T04:57:15;17.00;70.20
64143;DHT22;50437;51.970;5.904;2022-07-05T04:59:41;17.00;71.00
64143;DHT22;50437;51.970;5.904;2022-07-05T05:02:07;17.10;70.60
64143;DHT22;50437;51.970;5.904;2022-07-05T05:04:33;17.10;70.40
64143;DHT22;50437;51.970;5.904;2022-07-05T05:06:59;17.20;70.50
64143;DHT22;50437;51.970;5.904;2022-07-05T05:09:25;17.20;70.10
64143;DHT22;50437;51.970;5.904;2022-07-05T05:11:51;17.20;70.30
64143;DHT22;50437;51.970;5.904;2022-07-05T05:14:17;17.20;69.90
64143;DHT22;50437;51.970;5.904;2022-07-05T05:16:43;17.30;69.10
64143;DHT22;50437;51.970;5.904;2022-07-05T05:19:09;17.30;69.80
64143;DHT22;50437;51.970;5.904;2022-07-05T05:21:35;17.50;68.80
64143;DHT22;50437;51.970;5.904;2022-07-05T05:24:01;17.50;68.80
64143;DHT22;50437;51.970;5.904;2022-07-05T05:26:28;17.70;68.60
64143;DHT22;50437;51.970;5.904;2022-07-05T05:28:54;17.80;68.50
64143;DHT22;50437;51.970;5.904;2022-07-05T05:31:20;17.90;67.30
64143;DHT22;50437;51.970;5.904;2022-07-05T05:33:46;17.90;67.60
64143;DHT22;50437;51.970;5.904;2022-07-05T05:36:12;17.90;67.20
64143;DHT22;50437;51.970;5.904;2022-07-05T05:38:38;17.80;68.00
64143;DHT22;50437;51.970;5.904;2022-07-05T05:41:04;17.80;67.80
64143;DHT22;50437;51.970;5.904;2022-07-05T05:43:32;17.90;68.10
64143;DHT22;50437;51.970;5.904;2022-07-05T05:45:59;18.00;67.80
64143;DHT22;50437;51.970;5.904;2022-07-05T05:48:25;18.20;67.30
64143;DHT22;50437;51.970;5.904;2022-07-05T05:50:51;18.20;66.70
64143;DHT22;50437;51.970;5.904;2022-07-05T05:53:17;18.30;66.90
64143;DHT22;50437;51.970;5.904;2022-07-05T05:55:43;18.30;66.40
64143;DHT22;50437;51.970;5.904;2022-07-05T05:58:19;18.50;65.90
64143;DHT22;50437;51.970;5.904;2022-07-05T06:00:46;18.60;65.20
64143;DHT22;50437;51.970;5.904;2022-07-05T06:03:14;18.60;64.80
64143;DHT22;50437;51.970;5.904;2022-07-05T06:05:40;18.80;65.10
64143;DHT22;50437;51.970;5.904;2022-07-05T06:08:06;19.10;63.80
64143;DHT22;50437;51.970;5.904;2022-07-05T06:10:33;19.20;62.40
64143;DHT22;50437;51.970;5.904;2022-07-05T06:13:00;19.30;62.50
64143;DHT22;50437;51.970;5.904;2022-07-05T06:15:26;19.50;61.40
64143;DHT22;50437;51.970;5.904;2022-07-05T06:17:52;19.50;60.30
64143;DHT22;50437;51.970;5.904;2022-07-05T06:20:19;19.50;60.30
64143;DHT22;50437;51.970;5.904;2022-07-05T06:22:46;19.90;60.70
64143;DHT22;50437;51.970;5.904;2022-07-05T06:25:12;19.80;58.70
64143;DHT22;50437;51.970;5.904;2022-07-05T06:27:42;19.80;59.60
64143;DHT22;50437;51.970;5.904;2022-07-05T06:30:08;19.90;58.90
64143;DHT22;50437;51.970;5.904;2022-07-05T06:32:34;20.10;57.70
64143;DHT22;50437;51.970;5.904;2022-07-05T06:35:00;20.10;58.10
64143;DHT22;50437;51.970;5.904;2022-07-05T06:37:27;20.30;58.70
64143;DHT22;50437;51.970;5.904;2022-07-05T06:39:53;20.70;56.60
64143;DHT22;50437;51.970;5.904;2022-07-05T06:42:19;20.90;55.30
64143;DHT22;50437;51.970;5.904;2022-07-05T06:44:47;21.10;54.90
64143;DHT22;50437;51.970;5.904;2022-07-05T06:47:15;21.30;52.90
64143;DHT22;50437;51.970;5.904;2022-07-05T06:49:41;21.40;54.10
64143;DHT22;50437;51.970;5.904;2022-07-05T06:52:07;22.10;52.40
64143;DHT22;50437;51.970;5.904;2022-07-05T06:54:33;23.50;48.10
64143;DHT22;50437;51.970;5.904;2022-07-05T06:56:59;24.30;45.70
64143;DHT22;50437;51.970;5.904;2022-07-05T06:59:25;25.80;42.70
64143;DHT22;50437;51.970;5.904;2022-07-05T07:01:51;26.70;40.00
64143;DHT22;50437;51.970;5.904;2022-07-05T07:04:17;28.00;39.00
64143;DHT22;50437;51.970;5.904;2022-07-05T07:06:42;29.30;35.30
64143;DHT22;50437;51.970;5.904;2022-07-05T07:09:08;29.70;33.20
64143;DHT22;50437;51.970;5.904;2022-07-05T07:11:43;29.30;33.70
64143;DHT22;50437;51.970;5.904;2022-07-05T07:14:10;29.60;34.60
64143;DHT22;50437;51.970;5.904;2022-07-05T07:16:36;29.80;33.20
64143;DHT22;50437;51.970;5.904;2022-07-05T07:19:02;28.70;34.70
64143;DHT22;50437;51.970;5.904;2022-07-05T07:21:28;29.60;34.50
64143;DHT22;50437;51.970;5.904;2022-07-05T07:23:54;30.40;32.90
64143;DHT22;50437;51.970;5.904;2022-07-05T07:26:20;31.00;31.60
64143;DHT22;50437;51.970;5.904;2022-07-05T07:28:46;31.70;29.80
64143;DHT22;50437;51.970;5.904;2022-07-05T07:31:12;31.40;29.40
64143;DHT22;50437;51.970;5.904;2022-07-05T07:33:38;31.30;29.80
64143;DHT22;50437;51.970;5.904;2022-07-05T07:36:04;30.70;29.60
64143;DHT22;50437;51.970;5.904;2022-07-05T07:38:30;30.50;29.70
64143;DHT22;50437;51.970;5.904;2022-07-05T07:40:56;29.90;31.20
64143;DHT22;50437;51.970;5.904;2022-07-05T07:43:22;29.80;30.90
64143;DHT22;50437;51.970;5.904;2022-07-05T07:45:48;28.90;32.00
64143;DHT22;50437;51.970;5.904;2022-07-05T07:48:14;27.60;33.70
64143;DHT22;50437;51.970;5.904;2022-07-05T07:50:40;26.40;35.60
64143;DHT22;50437;51.970;5.904;2022-07-05T07:53:06;24.90;38.90
64143;DHT22;50437;51.970;5.904;2022-07-05T07:55:32;24.00;41.10
64143;DHT22;50437;51.970;5.904;2022-07-05T07:57:58;23.70;42.90
64143;DHT22;50437;51.970;5.904;2022-07-05T08:00:25;23.70;42.60
64143;DHT22;50437;51.970;5.904;2022-07-05T08:02:51;23.80;41.90
64143;DHT22;50437;51.970;5.904;2022-07-05T08:05:16;24.00;41.50
64143;DHT22;50437;51.970;5.904;2022-07-05T08:07:42;24.00;40.40
64143;DHT22;50437;51.970;5.904;2022-07-05T08:10:08;23.80;41.80
64143;DHT22;50437;51.970;5.904;2022-07-05T08:12:35;23.90;42.20
64143;DHT22;50437;51.970;5.904;2022-07-05T08:15:00;23.90;39.90
64143;DHT22;50437;51.970;5.904;2022-07-05T08:17:27;23.80;41.10
64143;DHT22;50437;51.970;5.904;2022-07-05T08:19:52;23.30;42.10
64143;DHT22;50437;51.970;5.904;2022-07-05T08:22:37;23.80;42.00
64143;DHT22;50437;51.970;5.904;2022-07-05T08:25:03;24.00;42.10
64143;DHT22;50437;51.970;5.904;2022-07-05T08:27:29;24.10;42.00
64143;DHT22;50437;51.970;5.904;2022-07-05T08:29:56;24.00;42.60
64143;DHT22;50437;51.970;5.904;2022-07-05T08:32:22;23.50;42.60
64143;DHT22;50437;51.970;5.904;2022-07-05T08:34:47;23.40;43.40
64143;DHT22;50437;51.970;5.904;2022-07-05T08:37:14;23.60;43.50
64143;DHT22;50437;51.970;5.904;2022-07-05T08:39:39;24.00;42.20
64143;DHT22;50437;51.970;5.904;2022-07-05T08:42:07;24.10;41.20
64143;DHT22;50437;51.970;5.904;2022-07-05T08:44:34;23.90;40.40
64143;DHT22;50437;51.970;5.904;2022-07-05T08:47:04;23.60;40.50
64143;DHT22;50437;51.970;5.904;2022-07-05T08:49:34;23.50;42.90
64143;DHT22;50437;51.970;5.904;2022-07-05T08:52:00;23.50;43.30
64143;DHT22;50437;51.970;5.904;2022-07-05T08:54:28;23.70;42.70
64143;DHT22;50437;51.970;5.904;2022-07-05T08:56:55;24.70;42.80
64143;DHT22;50437;51.970;5.904;2022-07-05T08:59:21;25.30;39.60
64143;DHT22;50437;51.970;5.904;2022-07-05T09:01:47;25.50;37.80
64143;DHT22;50437;51.970;5.904;2022-07-05T09:04:14;25.70;39.50
64143;DHT22;50437;51.970;5.904;2022-07-05T09:06:41;26.40;35.60
64143;DHT22;50437;51.970;5.904;2022-07-05T09:09:08;26.40;35.10
64143;DHT22;50437;51.970;5.904;2022-07-05T09:11:38;28.10;33.30
64143;DHT22;50437;51.970;5.904;2022-07-05T09:14:05;28.80;30.50
64143;DHT22;50437;51.970;5.904;2022-07-05T09:16:31;29.70;29.90
64143;DHT22;50437;51.970;5.904;2022-07-05T09:19:04;29.90;29.10
64143;DHT22;50437;51.970;5.904;2022-07-05T09:21:30;29.40;29.10
64143;DHT22;50437;51.970;5.904;2022-07-05T09:26:27;27.90;32.80
64143;DHT22;50437;51.970;5.904;2022-07-05T09:28:57;27.70;30.30
64143;DHT22;50437;51.970;5.904;2022-07-05T09:31:42;26.70;30.80
64143;DHT22;50437;51.970;5.904;2022-07-05T09:34:09;26.00;32.40
64143;DHT22;50437;51.970;5.904;2022-07-05T09:39:36;24.70;32.30
64143;DHT22;50437;51.970;5.904;2022-07-05T09:42:14;24.00;34.70
64143;DHT22;50437;51.970;5.904;2022-07-05T09:44:44;23.50;35.90
64143;DHT22;50437;51.970;5.904;2022-07-05T09:47:11;22.90;38.90
64143;DHT22;50437;51.970;5.904;2022-07-05T09:49:41;22.50;41.40
64143;DHT22;50437;51.970;5.904;2022-07-05T09:52:08;22.40;43.40
64143;DHT22;50437;51.970;5.904;2022-07-05T09:54:34;22.10;43.50
64143;DHT22;50437;51.970;5.904;2022-07-05T09:57:00;21.90;45.50
64143;DHT22;50437;51.970;5.904;2022-07-05T09:59:26;21.70;47.60
64143;DHT22;50437;51.970;5.904;2022-07-05T10:01:59;21.50;47.20
64143;DHT22;50437;51.970;5.904;2022-07-05T10:04:25;21.80;47.50
64143;DHT22;50437;51.970;5.904;2022-07-05T10:06:53;22.40;47.80
64143;DHT22;50437;51.970;5.904;2022-07-05T10:09:19;23.40;45.20
64143;DHT22;50437;51.970;5.904;2022-07-05T10:11:46;23.90;43.50
64143;DHT22;50437;51.970;5.904;2022-07-05T10:14:16;24.00;42.50
64143;DHT22;50437;51.970;5.904;2022-07-05T10:16:46;23.90;43.50
64143;DHT22;50437;51.970;5.904;2022-07-05T10:19:15;24.10;43.20
64143;DHT22;50437;51.970;5.904;2022-07-05T10:21:41;24.80;39.40
64143;DHT22;50437;51.970;5.904;2022-07-05T10:24:07;25.60;36.40
64143;DHT22;50437;51.970;5.904;2022-07-05T10:26:33;25.80;36.90
64143;DHT22;50437;51.970;5.904;2022-07-05T10:29:00;27.00;35.50
64143;DHT22;50437;51.970;5.904;2022-07-05T10:31:25;27.80;33.50
64143;DHT22;50437;51.970;5.904;2022-07-05T10:33:52;27.80;32.60
64143;DHT22;50437;51.970;5.904;2022-07-05T10:36:18;28.60;31.20
64143;DHT22;50437;51.970;5.904;2022-07-05T10:38:44;28.80;29.80
64143;DHT22;50437;51.970;5.904;2022-07-05T10:41:12;28.60;29.80
64143;DHT22;50437;51.970;5.904;2022-07-05T10:43:40;27.40;31.20
64143;DHT22;50437;51.970;5.904;2022-07-05T10:46:06;26.50;32.70
64143;DHT22;50437;51.970;5.904;2022-07-05T10:48:34;25.70;32.70
64143;DHT22;50437;51.970;5.904;2022-07-05T10:51:01;25.30;34.70
64143;DHT22;50437;51.970;5.904;2022-07-05T10:56:10;26.80;32.10
64143;DHT22;50437;51.970;5.904;2022-07-05T10:58:43;27.70;32.60
64143;DHT22;50437;51.970;5.904;2022-07-05T11:03:42;29.10;29.80
64143;DHT22;50437;51.970;5.904;2022-07-05T11:06:18;28.90;28.80
64143;DHT22;50437;51.970;5.904;2022-07-05T11:11:29;28.80;29.00
64143;DHT22;50437;51.970;5.904;2022-07-05T11:13:56;28.70;29.80
64143;DHT22;50437;51.970;5.904;2022-07-05T11:18:51;27.40;31.50
64143;DHT22;50437;51.970;5.904;2022-07-05T11:21:21;27.00;31.10
64143;DHT22;50437;51.970;5.904;2022-07-05T11:23:47;26.50;32.50
64143;DHT22;50437;51.970;5.904;2022-07-05T11:26:15;26.50;34.50
64143;DHT22;50437;51.970;5.904;2022-07-05T11:28:43;27.10;33.10
64143;DHT22;50437;51.970;5.904;2022-07-05T11:31:11;27.60;32.80
64143;DHT22;50437;51.970;5.904;2022-07-05T11:33:38;28.30;31.10
64143;DHT22;50437;51.970;5.904;2022-07-05T11:36:06;28.90;32.50
64143;DHT22;50437;51.970;5.904;2022-07-05T11:38:33;29.10;30.30
64143;DHT22;50437;51.970;5.904;2022-07-05T11:41:10;28.40;29.30
64143;DHT22;50437;51.970;5.904;2022-07-05T11:43:37;28.60;31.20
64143;DHT22;50437;51.970;5.904;2022-07-05T11:46:03;28.60;28.80
64143;DHT22;50437;51.970;5.904;2022-07-05T11:48:29;28.20;30.00
64143;DHT22;50437;51.970;5.904;2022-07-05T11:50:55;28.50;28.80
64143;DHT22;50437;51.970;5.904;2022-07-05T11:53:28;28.80;29.00
64143;DHT22;50437;51.970;5.904;2022-07-05T11:55:54;27.90;29.50
64143;DHT22;50437;51.970;5.904;2022-07-05T11:58:21;27.80;29.10
64143;DHT22;50437;51.970;5.904;2022-07-05T12:00:52;27.20;28.40
64143;DHT22;50437;51.970;5.904;2022-07-05T12:03:19;26.30;29.80
64143;DHT22;50437;51.970;5.904;2022-07-05T12:05:45;25.80;30.00
64143;DHT22;50437;51.970;5.904;2022-07-05T12:08:11;25.50;31.20
64143;DHT22;50437;51.970;5.904;2022-07-05T12:10:37;25.40;33.20
64143;DHT22;50437;51.970;5.904;2022-07-05T12:13:21;25.30;32.90
64143;DHT22;50437;51.970;5.904;2022-07-05T12:15:47;25.00;32.90
64143;DHT22;50437;51.970;5.904;2022-07-05T12:18:13;25.00;33.00
64143;DHT22;50437;51.970;5.904;2022-07-05T12:20:41;24.60;32.90
64143;DHT22;50437;51.970;5.904;2022-07-05T12:23:09;25.00;31.20
64143;DHT22;50437;51.970;5.904;2022-07-05T12:25:35;24.90;33.20
64143;DHT22;50437;51.970;5.904;2022-07-05T12:28:04;24.50;34.60
64143;DHT22;50437;51.970;5.904;2022-07-05T12:30:34;24.90;34.40
64143;DHT22;50437;51.970;5.904;2022-07-05T12:33:04;25.40;32.30
64143;DHT22;50437;51.970;5.904;2022-07-05T12:38:04;26.30;31.80
64143;DHT22;50437;51.970;5.904;2022-07-05T12:40:30;26.00;30.00
64143;DHT22;50437;51.970;5.904;2022-07-05T12:43:15;25.30;31.70
64143;DHT22;50437;51.970;5.904;2022-07-05T12:45:42;25.30;32.20
64143;DHT22;50437;51.970;5.904;2022-07-05T12:48:09;25.60;33.20
64143;DHT22;50437;51.970;5.904;2022-07-05T12:50:51;26.10;30.70
64143;DHT22;50437;51.970;5.904;2022-07-05T12:53:18;25.80;29.70
64143;DHT22;50437;51.970;5.904;2022-07-05T12:56:03;25.50;31.60
64143;DHT22;50437;51.970;5.904;2022-07-05T12:58:49;25.30;31.20
64143;DHT22;50437;51.970;5.904;2022-07-05T13:01:19;25.10;32.80
64143;DHT22;50437;51.970;5.904;2022-07-05T13:09:06;24.10;35.20
64143;DHT22;50437;51.970;5.904;2022-07-05T13:11:32;24.50;34.10
64143;DHT22;50437;51.970;5.904;2022-07-05T13:13:58;24.50;34.20
64143;DHT22;50437;51.970;5.904;2022-07-05T13:16:24;24.70;34.10
64143;DHT22;50437;51.970;5.904;2022-07-05T13:18:50;24.90;34.10
64143;DHT22;50437;51.970;5.904;2022-07-05T13:21:16;25.10;33.30
64143;DHT22;50437;51.970;5.904;2022-07-05T13:23:42;24.70;34.00
64143;DHT22;50437;51.970;5.904;2022-07-05T13:26:08;24.30;35.50
64143;DHT22;50437;51.970;5.904;2022-07-05T13:28:34;24.10;35.80
64143;DHT22;50437;51.970;5.904;2022-07-05T13:31:00;24.30;36.00
64143;DHT22;50437;51.970;5.904;2022-07-05T13:33:26;24.70;34.50
64143;DHT22;50437;51.970;5.904;2022-07-05T13:35:52;24.90;34.40
64143;DHT22;50437;51.970;5.904;2022-07-05T13:38:19;25.50;33.70
64143;DHT22;50437;51.970;5.904;2022-07-05T13:40:45;25.60;32.80
64143;DHT22;50437;51.970;5.904;2022-07-05T13:43:11;25.60;32.40
64143;DHT22;50437;51.970;5.904;2022-07-05T13:45:37;25.60;32.40
64143;DHT22;50437;51.970;5.904;2022-07-05T13:48:03;25.70;33.70
64143;DHT22;50437;51.970;5.904;2022-07-05T13:50:29;25.80;33.20
64143;DHT22;50437;51.970;5.904;2022-07-05T13:52:58;26.10;30.90
64143;DHT22;50437;51.970;5.904;2022-07-05T13:55:24;25.40;32.20
64143;DHT22;50437;51.970;5.904;2022-07-05T13:57:50;25.20;32.40
64143;DHT22;50437;51.970;5.904;2022-07-05T14:00:16;25.20;31.90
64143;DHT22;50437;51.970;5.904;2022-07-05T14:02:42;25.00;32.70
64143;DHT22;50437;51.970;5.904;2022-07-05T14:05:08;25.10;32.20
64143;DHT22;50437;51.970;5.904;2022-07-05T14:07:34;24.70;32.30
64143;DHT22;50437;51.970;5.904;2022-07-05T14:10:00;24.70;33.60
64143;DHT22;50437;51.970;5.904;2022-07-05T14:12:26;24.90;32.40
64143;DHT22;50437;51.970;5.904;2022-07-05T14:14:52;25.10;32.40
64143;DHT22;50437;51.970;5.904;2022-07-05T14:17:18;25.10;33.50
64143;DHT22;50437;51.970;5.904;2022-07-05T14:19:44;24.80;31.20
64143;DHT22;50437;51.970;5.904;2022-07-05T14:22:10;24.20;33.30
64143;DHT22;50437;51.970;5.904;2022-07-05T14:24:36;23.80;32.60
64143;DHT22;50437;51.970;5.904;2022-07-05T14:27:02;23.70;34.50
64143;DHT22;50437;51.970;5.904;2022-07-05T14:29:28;23.70;34.10
64143;DHT22;50437;51.970;5.904;2022-07-05T14:31:54;23.50;34.10
64143;DHT22;50437;51.970;5.904;2022-07-05T14:34:21;23.70;34.20
64143;DHT22;50437;51.970;5.904;2022-07-05T14:36:47;24.00;34.30
64143;DHT22;50437;51.970;5.904;2022-07-05T14:39:13;24.00;32.70
64143;DHT22;50437;51.970;5.904;2022-07-05T14:41:38;24.00;33.80
64143;DHT22;50437;51.970;5.904;2022-07-05T14:44:04;24.30;33.10
64143;DHT22;50437;51.970;5.904;2022-07-05T14:46:30;24.60;33.10
64143;DHT22;50437;51.970;5.904;2022-07-05T14:48:56;24.90;31.30
64143;DHT22;50437;51.970;5.904;2022-07-05T14:51:22;24.90;31.60
64143;DHT22;50437;51.970;5.904;2022-07-05T14:53:48;25.30;31.20
64143;DHT22;50437;51.970;5.904;2022-07-05T14:56:14;25.00;31.10
64143;DHT22;50437;51.970;5.904;2022-07-05T14:58:41;25.00;30.80
64143;DHT22;50437;51.970;5.904;2022-07-05T15:01:07;25.30;31.10
64143;DHT22;50437;51.970;5.904;2022-07-05T15:03:33;25.80;30.10
64143;DHT22;50437;51.970;5.904;2022-07-05T15:06:00;25.70;29.70
64143;DHT22;50437;51.970;5.904;2022-07-05T15:08:26;25.00;30.20
64143;DHT22;50437;51.970;5.904;2022-07-05T15:10:53;24.60;30.50
64143;DHT22;50437;51.970;5.904;2022-07-05T15:13:19;24.60;30.60
64143;DHT22;50437;51.970;5.904;2022-07-05T15:15:45;24.50;29.90
64143;DHT22;50437;51.970;5.904;2022-07-05T15:18:11;24.30;30.60
64143;DHT22;50437;51.970;5.904;2022-07-05T15:20:37;24.50;32.10
64143;DHT22;50437;51.970;5.904;2022-07-05T15:23:03;24.50;30.30
64143;DHT22;50437;51.970;5.904;2022-07-05T15:25:29;24.70;30.00
64143;DHT22;50437;51.970;5.904;2022-07-05T15:27:55;24.40;30.30
64143;DHT22;50437;51.970;5.904;2022-07-05T15:30:21;24.20;31.70
64143;DHT22;50437;51.970;5.904;2022-07-05T15:32:49;24.60;29.80
64143;DHT22;50437;51.970;5.904;2022-07-05T15:35:15;24.30;29.50
64143;DHT22;50437;51.970;5.904;2022-07-05T15:37:43;24.00;30.70
64143;DHT22;50437;51.970;5.904;2022-07-05T15:40:09;24.00;31.20
64143;DHT22;50437;51.970;5.904;2022-07-05T15:42:36;24.50;31.30
64143;DHT22;50437;51.970;5.904;2022-07-05T15:45:02;24.80;29.50
64143;DHT22;50437;51.970;5.904;2022-07-05T15:47:28;25.00;29.70
64143;DHT22;50437;51.970;5.904;2022-07-05T15:49:54;25.00;29.10
64143;DHT22;50437;51.970;5.904;2022-07-05T15:52:20;25.40;29.50